sensor_id;sensor_type;location;lat;lon;timestamp;P1;durP1;ratioP1;P2;durP2;ratioP2
6564;SDS011;3316;44.118;27.258;2023-04-01T00:00:27;8.80;;;6.00;;
6564;SDS011;3316;44.118;27.258;2023-04-01T00:02:53;10.83;;;6.77;;
6564;SDS011;3316;44.118;27.258;2023-04-01T00:05:18;13.60;;;6.43;;
6564;SDS011;3316;44.118;27.258;2023-04-01T00:07:45;9.13;;;6.43;;
6564;SDS011;3316;44.118;27.258;2023-04-01T00:10:11;11.23;;;7.40;;
6564;SDS011;3316;44.118;27.258;2023-04-01T00:12:38;9.03;;;6.63;;
6564;SDS011;3316;44.118;27.258;2023-04-01T00:15:05;10.97;;;6.47;;
6564;SDS011;3316;44.118;27.258;2023-04-01T00:17:32;8.77;;;6.13;;
6564;SDS011;3316;44.118;27.258;2023-04-01T00:19:58;9.07;;;6.23;;
6564;SDS011;3316;44.118;27.258;2023-04-01T00:22:24;10.27;;;6.47;;
6564;SDS011;3316;44.118;27.258;2023-04-01T00:24:50;10.37;;;6.27;;
6564;SDS011;3316;44.118;27.258;2023-04-01T00:27:16;9.20;;;6.87;;
6564;SDS011;3316;44.118;27.258;2023-04-01T00:29:42;10.00;;;6.47;;
6564;SDS011;3316;44.118;27.258;2023-04-01T00:32:08;7.37;;;6.23;;
6564;SDS011;3316;44.118;27.258;2023-04-01T00:34:35;8.77;;;5.97;;
6564;SDS011;3316;44.118;27.258;2023-04-01T00:37:00;13.37;;;6.50;;
6564;SDS011;3316;44.118;27.258;2023-04-01T00:39:28;9.23;;;6.27;;
6564;SDS011;3316;44.118;27.258;2023-04-01T00:41:54;11.70;;;6.90;;
6564;SDS011;3316;44.118;27.258;2023-04-01T00:44:26;10.40;;;6.30;;
6564;SDS011;3316;44.118;27.258;2023-04-01T00:46:53;10.83;;;6.10;;
6564;SDS011;3316;44.118;27.258;2023-04-01T00:49:19;8.47;;;5.57;;
6564;SDS011;3316;44.118;27.258;2023-04-01T00:51:50;7.40;;;5.60;;
6564;SDS011;3316;44.118;27.258;2023-04-01T00:54:18;6.60;;;5.73;;
6564;SDS011;3316;44.118;27.258;2023-04-01T00:56:49;7.27;;;5.20;;
6564;SDS011;3316;44.118;27.258;2023-04-01T00:59:21;8.57;;;5.80;;
6564;SDS011;3316;44.118;27.258;2023-04-01T01:01:51;9.70;;;5.83;;
6564;SDS011;3316;44.118;27.258;2023-04-01T01:04:23;8.53;;;5.90;;
6564;SDS011;3316;44.118;27.258;2023-04-01T01:07:00;7.03;;;5.77;;
6564;SDS011;3316;44.118;27.258;2023-04-01T01:09:39;9.70;;;5.53;;
6564;SDS011;3316;44.118;27.258;2023-04-01T01:12:20;7.97;;;4.53;;
6564;SDS011;3316;44.118;27.258;2023-04-01T01:15:02;6.73;;;5.50;;
6564;SDS011;3316;44.118;27.258;2023-04-01T01:28:28;6.60;;;5.57;;
6564;SDS011;3316;44.118;27.258;2023-04-01T01:31:23;8.03;;;5.03;;
6564;SDS011;3316;44.118;27.258;2023-04-01T01:34:02;5.20;;;4.10;;
6564;SDS011;3316;44.118;27.258;2023-04-01T01:36:37;6.10;;;4.83;;
6564;SDS011;3316;44.118;27.258;2023-04-01T01:39:05;8.03;;;5.57;;
6564;SDS011;3316;44.118;27.258;2023-04-01T01:41:33;8.43;;;5.77;;
6564;SDS011;3316;44.118;27.258;2023-04-01T01:44:02;8.87;;;6.23;;
6564;SDS011;3316;44.118;27.258;2023-04-01T01:46:32;9.00;;;5.70;;
6564;SDS011;3316;44.118;27.258;2023-04-01T01:48:58;8.17;;;5.70;;
6564;SDS011;3316;44.118;27.258;2023-04-01T01:51:25;10.50;;;6.03;;
6564;SDS011;3316;44.118;27.258;2023-04-01T01:53:52;8.80;;;5.37;;
6564;SDS011;3316;44.118;27.258;2023-04-01T01:56:18;6.77;;;5.40;;
6564;SDS011;3316;44.118;27.258;2023-04-01T01:58:48;5.97;;;5.40;;
6564;SDS011;3316;44.118;27.258;2023-04-01T02:01:19;7.93;;;5.97;;
6564;SDS011;3316;44.118;27.258;2023-04-01T02:03:49;9.53;;;5.67;;
6564;SDS011;3316;44.118;27.258;2023-04-01T02:06:17;7.27;;;5.37;;
6564;SDS011;3316;44.118;27.258;2023-04-01T02:11:36;7.17;;;5.27;;
6564;SDS011;3316;44.118;27.258;2023-04-01T02:14:10;6.00;;;5.40;;
6564;SDS011;3316;44.118;27.258;2023-04-01T02:16:45;6.43;;;5.00;;
6564;SDS011;3316;44.118;27.258;2023-04-01T02:19:18;14.20;;;5.63;;
6564;SDS011;3316;44.118;27.258;2023-04-01T02:21:49;9.90;;;5.53;;
6564;SDS011;3316;44.118;27.258;2023-04-01T02:24:18;7.17;;;5.23;;
6564;SDS011;3316;44.118;27.258;2023-04-01T02:26:47;8.17;;;5.17;;
6564;SDS011;3316;44.118;27.258;2023-04-01T02:29:15;6.47;;;5.13;;
6564;SDS011;3316;44.118;27.258;2023-04-01T02:31:44;8.50;;;5.50;;
6564;SDS011;3316;44.118;27.258;2023-04-01T02:34:10;9.77;;;5.90;;
6564;SDS011;3316;44.118;27.258;2023-04-01T02:36:36;8.57;;;5.50;;
6564;SDS011;3316;44.118;27.258;2023-04-01T02:39:02;6.80;;;5.50;;
6564;SDS011;3316;44.118;27.258;2023-04-01T02:41:30;8.53;;;5.43;;
6564;SDS011;3316;44.118;27.258;2023-04-01T02:43:56;7.00;;;5.33;;
6564;SDS011;3316;44.118;27.258;2023-04-01T02:46:23;5.90;;;5.27;;
6564;SDS011;3316;44.118;27.258;2023-04-01T02:48:49;12.13;;;5.90;;
6564;SDS011;3316;44.118;27.258;2023-04-01T02:51:14;6.03;;;5.37;;
6564;SDS011;3316;44.118;27.258;2023-04-01T02:53:40;7.30;;;5.40;;
6564;SDS011;3316;44.118;27.258;2023-04-01T02:56:06;10.03;;;5.10;;
6564;SDS011;3316;44.118;27.258;2023-04-01T02:58:31;9.80;;;5.70;;
6564;SDS011;3316;44.118;27.258;2023-04-01T03:00:56;7.63;;;5.20;;
6564;SDS011;3316;44.118;27.258;2023-04-01T03:03:22;9.03;;;5.63;;
6564;SDS011;3316;44.118;27.258;2023-04-01T03:05:48;8.03;;;5.60;;
6564;SDS011;3316;44.118;27.258;2023-04-01T03:08:13;7.10;;;5.17;;
6564;SDS011;3316;44.118;27.258;2023-04-01T03:10:38;7.70;;;5.80;;
6564;SDS011;3316;44.118;27.258;2023-04-01T03:13:04;9.90;;;6.73;;
6564;SDS011;3316;44.118;27.258;2023-04-01T03:15:30;11.33;;;6.27;;
6564;SDS011;3316;44.118;27.258;2023-04-01T03:17:55;6.67;;;5.30;;
6564;SDS011;3316;44.118;27.258;2023-04-01T03:20:21;7.10;;;5.77;;
6564;SDS011;3316;44.118;27.258;2023-04-01T03:22:46;12.13;;;6.07;;
6564;SDS011;3316;44.118;27.258;2023-04-01T03:25:12;6.23;;;5.03;;
6564;SDS011;3316;44.118;27.258;2023-04-01T03:27:37;10.63;;;4.97;;
6564;SDS011;3316;44.118;27.258;2023-04-01T03:30:03;8.20;;;5.77;;
6564;SDS011;3316;44.118;27.258;2023-04-01T03:32:30;6.83;;;5.57;;
6564;SDS011;3316;44.118;27.258;2023-04-01T03:34:56;6.93;;;5.50;;
6564;SDS011;3316;44.118;27.258;2023-04-01T03:37:22;9.67;;;6.00;;
6564;SDS011;3316;44.118;27.258;2023-04-01T03:39:48;7.60;;;5.80;;
6564;SDS011;3316;44.118;27.258;2023-04-01T03:42:15;9.47;;;5.10;;
6564;SDS011;3316;44.118;27.258;2023-04-01T03:44:40;9.63;;;5.30;;
6564;SDS011;3316;44.118;27.258;2023-04-01T03:47:06;8.43;;;4.83;;
6564;SDS011;3316;44.118;27.258;2023-04-01T03:49:32;7.70;;;5.30;;
6564;SDS011;3316;44.118;27.258;2023-04-01T03:51:58;10.07;;;5.20;;
6564;SDS011;3316;44.118;27.258;2023-04-01T03:54:23;8.73;;;5.20;;
6564;SDS011;3316;44.118;27.258;2023-04-01T03:56:49;7.13;;;4.67;;
6564;SDS011;3316;44.118;27.258;2023-04-01T03:59:14;12.43;;;5.40;;
6564;SDS011;3316;44.118;27.258;2023-04-01T04:01:40;9.43;;;5.23;;
6564;SDS011;3316;44.118;27.258;2023-04-01T04:04:06;7.33;;;5.13;;
6564;SDS011;3316;44.118;27.258;2023-04-01T04:06:32;12.03;;;7.03;;
6564;SDS011;3316;44.118;27.258;2023-04-01T04:08:57;15.60;;;6.70;;
6564;SDS011;3316;44.118;27.258;2023-04-01T04:11:23;12.00;;;7.20;;
6564;SDS011;3316;44.118;27.258;2023-04-01T04:13:48;10.40;;;6.60;;
6564;SDS011;3316;44.118;27.258;2023-04-01T04:16:14;10.17;;;6.67;;
6564;SDS011;3316;44.118;27.258;2023-04-01T04:18:41;9.90;;;6.00;;
6564;SDS011;3316;44.118;27.258;2023-04-01T04:21:06;9.20;;;6.07;;
6564;SDS011;3316;44.118;27.258;2023-04-01T04:23:32;13.10;;;6.20;;
6564;SDS011;3316;44.118;27.258;2023-04-01T04:26:09;12.93;;;6.23;;
6564;SDS011;3316;44.118;27.258;2023-04-01T04:28:36;9.00;;;6.23;;
6564;SDS011;3316;44.118;27.258;2023-04-01T04:31:02;8.60;;;5.43;;
6564;SDS011;3316;44.118;27.258;2023-04-01T04:33:29;6.90;;;5.20;;
6564;SDS011;3316;44.118;27.258;2023-04-01T04:35:55;7.93;;;5.10;;
6564;SDS011;3316;44.118;27.258;2023-04-01T04:38:22;8.60;;;5.37;;
6564;SDS011;3316;44.118;27.258;2023-04-01T04:40:48;11.80;;;5.30;;
6564;SDS011;3316;44.118;27.258;2023-04-01T04:43:15;8.73;;;5.60;;
6564;SDS011;3316;44.118;27.258;2023-04-01T04:45:42;9.17;;;6.00;;
6564;SDS011;3316;44.118;27.258;2023-04-01T04:48:08;9.63;;;6.33;;
6564;SDS011;3316;44.118;27.258;2023-04-01T04:50:34;8.17;;;5.93;;
6564;SDS011;3316;44.118;27.258;2023-04-01T04:53:00;12.00;;;5.37;;
6564;SDS011;3316;44.118;27.258;2023-04-01T04:55:26;13.60;;;6.40;;
6564;SDS011;3316;44.118;27.258;2023-04-01T04:57:51;8.97;;;5.50;;
6564;SDS011;3316;44.118;27.258;2023-04-01T05:00:17;11.57;;;5.33;;
6564;SDS011;3316;44.118;27.258;2023-04-01T05:02:42;7.87;;;6.00;;
6564;SDS011;3316;44.118;27.258;2023-04-01T05:05:08;6.90;;;5.50;;
6564;SDS011;3316;44.118;27.258;2023-04-01T05:07:34;11.00;;;6.90;;
6564;SDS011;3316;44.118;27.258;2023-04-01T05:09:59;11.43;;;5.97;;
6564;SDS011;3316;44.118;27.258;2023-04-01T05:12:25;12.80;;;6.73;;
6564;SDS011;3316;44.118;27.258;2023-04-01T05:14:50;11.83;;;6.80;;
6564;SDS011;3316;44.118;27.258;2023-04-01T05:17:16;12.23;;;5.70;;
6564;SDS011;3316;44.118;27.258;2023-04-01T05:19:41;13.17;;;6.17;;
6564;SDS011;3316;44.118;27.258;2023-04-01T05:22:07;11.40;;;5.97;;
6564;SDS011;3316;44.118;27.258;2023-04-01T05:24:32;11.33;;;6.43;;
6564;SDS011;3316;44.118;27.258;2023-04-01T05:26:58;8.00;;;5.80;;
6564;SDS011;3316;44.118;27.258;2023-04-01T05:29:25;10.93;;;5.60;;
6564;SDS011;3316;44.118;27.258;2023-04-01T05:31:51;13.40;;;6.07;;
6564;SDS011;3316;44.118;27.258;2023-04-01T05:34:17;10.67;;;5.90;;
6564;SDS011;3316;44.118;27.258;2023-04-01T05:36:43;8.90;;;5.70;;
6564;SDS011;3316;44.118;27.258;2023-04-01T05:39:09;8.63;;;5.87;;
6564;SDS011;3316;44.118;27.258;2023-04-01T05:41:35;15.80;;;6.00;;
6564;SDS011;3316;44.118;27.258;2023-04-01T05:44:01;9.63;;;5.80;;
6564;SDS011;3316;44.118;27.258;2023-04-01T05:46:27;9.70;;;5.63;;
6564;SDS011;3316;44.118;27.258;2023-04-01T05:48:53;19.77;;;7.43;;
6564;SDS011;3316;44.118;27.258;2023-04-01T05:51:19;46.03;;;27.63;;
6564;SDS011;3316;44.118;27.258;2023-04-01T05:53:44;11.60;;;6.50;;
6564;SDS011;3316;44.118;27.258;2023-04-01T05:56:09;9.87;;;7.07;;
6564;SDS011;3316;44.118;27.258;2023-04-01T05:58:35;13.00;;;7.43;;
6564;SDS011;3316;44.118;27.258;2023-04-01T06:01:05;22.97;;;8.23;;
6564;SDS011;3316;44.118;27.258;2023-04-01T06:03:33;18.50;;;8.03;;
6564;SDS011;3316;44.118;27.258;2023-04-01T06:05:58;15.27;;;8.73;;
6564;SDS011;3316;44.118;27.258;2023-04-01T06:08:26;15.63;;;7.13;;
6564;SDS011;3316;44.118;27.258;2023-04-01T06:16:25;14.67;;;7.37;;
6564;SDS011;3316;44.118;27.258;2023-04-01T06:30:32;13.57;;;6.37;;
6564;SDS011;3316;44.118;27.258;2023-04-01T06:43:42;9.27;;;4.97;;
6564;SDS011;3316;44.118;27.258;2023-04-01T06:49:02;9.57;;;5.80;;
6564;SDS011;3316;44.118;27.258;2023-04-01T06:54:17;8.57;;;5.70;;
6564;SDS011;3316;44.118;27.258;2023-04-01T06:56:48;11.13;;;5.30;;
6564;SDS011;3316;44.118;27.258;2023-04-01T06:59:27;8.93;;;5.13;;
6564;SDS011;3316;44.118;27.258;2023-04-01T07:01:58;8.07;;;4.53;;
6564;SDS011;3316;44.118;27.258;2023-04-01T07:04:46;7.20;;;4.87;;
6564;SDS011;3316;44.118;27.258;2023-04-01T07:09:51;8.00;;;4.80;;
6564;SDS011;3316;44.118;27.258;2023-04-01T07:15:01;43.13;;;22.53;;
6564;SDS011;3316;44.118;27.258;2023-04-01T07:17:37;11.27;;;7.23;;
6564;SDS011;3316;44.118;27.258;2023-04-01T07:20:26;11.80;;;6.80;;
6564;SDS011;3316;44.118;27.258;2023-04-01T07:22:59;12.57;;;6.73;;
6564;SDS011;3316;44.118;27.258;2023-04-01T07:25:51;16.40;;;8.87;;
6564;SDS011;3316;44.118;27.258;2023-04-01T07:28:16;13.63;;;6.80;;
6564;SDS011;3316;44.118;27.258;2023-04-01T07:33:19;17.67;;;7.83;;
6564;SDS011;3316;44.118;27.258;2023-04-01T07:35:56;13.70;;;7.27;;
6564;SDS011;3316;44.118;27.258;2023-04-01T07:41:16;14.07;;;6.47;;
6564;SDS011;3316;44.118;27.258;2023-04-01T07:52:38;24.33;;;13.67;;
6564;SDS011;3316;44.118;27.258;2023-04-01T07:55:09;53.60;;;20.77;;
6564;SDS011;3316;44.118;27.258;2023-04-01T08:04:12;6.57;;;4.40;;
6564;SDS011;3316;44.118;27.258;2023-04-01T08:06:53;12.03;;;5.83;;
6564;SDS011;3316;44.118;27.258;2023-04-01T08:12:27;23.43;;;11.70;;
6564;SDS011;3316;44.118;27.258;2023-04-01T08:21:00;58.97;;;31.07;;
6564;SDS011;3316;44.118;27.258;2023-04-01T08:23:27;12.73;;;5.70;;
6564;SDS011;3316;44.118;27.258;2023-04-01T08:26:02;31.60;;;21.03;;
6564;SDS011;3316;44.118;27.258;2023-04-01T08:28:54;13.03;;;6.00;;
6564;SDS011;3316;44.118;27.258;2023-04-01T08:31:39;13.30;;;5.70;;
6564;SDS011;3316;44.118;27.258;2023-04-01T08:34:36;23.47;;;10.37;;
6564;SDS011;3316;44.118;27.258;2023-04-01T08:37:04;25.00;;;11.20;;
6564;SDS011;3316;44.118;27.258;2023-04-01T08:39:38;61.03;;;25.67;;
6564;SDS011;3316;44.118;27.258;2023-04-01T08:58:06;15.90;;;8.27;;
6564;SDS011;3316;44.118;27.258;2023-04-01T09:04:25;21.30;;;9.80;;
6564;SDS011;3316;44.118;27.258;2023-04-01T09:13:26;10.27;;;5.37;;
6564;SDS011;3316;44.118;27.258;2023-04-01T09:18:57;13.63;;;6.87;;
6564;SDS011;3316;44.118;27.258;2023-04-01T09:24:17;9.50;;;6.10;;
6564;SDS011;3316;44.118;27.258;2023-04-01T09:27:14;14.43;;;6.33;;
6564;SDS011;3316;44.118;27.258;2023-04-01T09:40:54;17.70;;;10.37;;
6564;SDS011;3316;44.118;27.258;2023-04-01T10:40:24;8.00;;;4.53;;
6564;SDS011;3316;44.118;27.258;2023-04-01T10:49:41;13.53;;;4.40;;
6564;SDS011;3316;44.118;27.258;2023-04-01T11:09:10;9.63;;;4.33;;
6564;SDS011;3316;44.118;27.258;2023-04-01T11:23:22;8.73;;;4.23;;
6564;SDS011;3316;44.118;27.258;2023-04-01T11:31:25;7.53;;;3.63;;
6564;SDS011;3316;44.118;27.258;2023-04-01T11:42:38;23.77;;;9.40;;
6564;SDS011;3316;44.118;27.258;2023-04-01T11:45:15;18.67;;;7.40;;
6564;SDS011;3316;44.118;27.258;2023-04-01T11:50:42;10.53;;;5.50;;
6564;SDS011;3316;44.118;27.258;2023-04-01T11:55:47;7.13;;;4.87;;
6564;SDS011;3316;44.118;27.258;2023-04-01T12:01:26;17.97;;;11.13;;
6564;SDS011;3316;44.118;27.258;2023-04-01T12:06:56;12.50;;;4.83;;
6564;SDS011;3316;44.118;27.258;2023-04-01T12:31:57;16.87;;;7.10;;
6564;SDS011;3316;44.118;27.258;2023-04-01T12:37:33;8.43;;;3.37;;
6564;SDS011;3316;44.118;27.258;2023-04-01T12:56:08;5.87;;;3.90;;
6564;SDS011;3316;44.118;27.258;2023-04-01T13:01:28;10.30;;;4.53;;
6564;SDS011;3316;44.118;27.258;2023-04-01T13:12:58;13.47;;;4.90;;
6564;SDS011;3316;44.118;27.258;2023-04-01T13:21:29;7.63;;;4.63;;
6564;SDS011;3316;44.118;27.258;2023-04-01T13:26:54;9.13;;;4.27;;
6564;SDS011;3316;44.118;27.258;2023-04-01T13:29:32;8.63;;;4.60;;
6564;SDS011;3316;44.118;27.258;2023-04-01T13:40:28;7.83;;;5.03;;
6564;SDS011;3316;44.118;27.258;2023-04-01T13:45:43;9.27;;;4.73;;
6564;SDS011;3316;44.118;27.258;2023-04-01T14:11:25;10.97;;;6.43;;
6564;SDS011;3316;44.118;27.258;2023-04-01T14:16:47;13.33;;;6.07;;
6564;SDS011;3316;44.118;27.258;2023-04-01T14:28:16;8.73;;;7.03;;
6564;SDS011;3316;44.118;27.258;2023-04-01T14:33:40;11.80;;;6.57;;
6564;SDS011;3316;44.118;27.258;2023-04-01T14:42:31;13.20;;;6.20;;
6564;SDS011;3316;44.118;27.258;2023-04-01T14:45:25;14.33;;;7.50;;
6564;SDS011;3316;44.118;27.258;2023-04-01T14:50:54;12.90;;;6.80;;
6564;SDS011;3316;44.118;27.258;2023-04-01T14:53:26;13.00;;;7.50;;
6564;SDS011;3316;44.118;27.258;2023-04-01T14:55:55;10.63;;;7.20;;
6564;SDS011;3316;44.118;27.258;2023-04-01T14:58:23;13.30;;;7.53;;
6564;SDS011;3316;44.118;27.258;2023-04-01T15:01:00;12.57;;;7.37;;
6564;SDS011;3316;44.118;27.258;2023-04-01T15:03:32;11.73;;;7.57;;
6564;SDS011;3316;44.118;27.258;2023-04-01T15:06:48;11.07;;;8.43;;
6564;SDS011;3316;44.118;27.258;2023-04-01T15:11:37;12.70;;;7.30;;
6564;SDS011;3316;44.118;27.258;2023-04-01T15:20:08;12.97;;;7.77;;
6564;SDS011;3316;44.118;27.258;2023-04-01T15:23:17;10.53;;;7.53;;
6564;SDS011;3316;44.118;27.258;2023-04-01T15:31:33;13.23;;;8.70;;
6564;SDS011;3316;44.118;27.258;2023-04-01T15:34:27;11.40;;;8.73;;
6564;SDS011;3316;44.118;27.258;2023-04-01T15:37:06;16.23;;;10.43;;
6564;SDS011;3316;44.118;27.258;2023-04-01T15:39:57;14.33;;;9.83;;
6564;SDS011;3316;44.118;27.258;2023-04-01T15:55:50;19.00;;;11.57;;
6564;SDS011;3316;44.118;27.258;2023-04-01T15:58:46;18.57;;;12.13;;
6564;SDS011;3316;44.118;27.258;2023-04-01T16:11:50;22.63;;;13.90;;
6564;SDS011;3316;44.118;27.258;2023-04-01T16:17:14;21.53;;;13.53;;
6564;SDS011;3316;44.118;27.258;2023-04-01T16:27:46;25.70;;;16.83;;
6564;SDS011;3316;44.118;27.258;2023-04-01T16:30:34;23.40;;;14.70;;
6564;SDS011;3316;44.118;27.258;2023-04-01T16:33:15;21.17;;;14.63;;
6564;SDS011;3316;44.118;27.258;2023-04-01T16:41:23;30.30;;;22.33;;
6564;SDS011;3316;44.118;27.258;2023-04-01T16:43:58;35.00;;;23.53;;
6564;SDS011;3316;44.118;27.258;2023-04-01T16:46:39;35.33;;;25.43;;
6564;SDS011;3316;44.118;27.258;2023-04-01T16:51:46;49.43;;;32.33;;
6564;SDS011;3316;44.118;27.258;2023-04-01T17:03:08;42.00;;;22.73;;
6564;SDS011;3316;44.118;27.258;2023-04-01T17:05:43;41.67;;;23.93;;
6564;SDS011;3316;44.118;27.258;2023-04-01T17:14:00;57.57;;;30.30;;
6564;SDS011;3316;44.118;27.258;2023-04-01T17:25:07;72.83;;;39.60;;
6564;SDS011;3316;44.118;27.258;2023-04-01T17:30:30;152.47;;;59.70;;
6564;SDS011;3316;44.118;27.258;2023-04-01T17:33:18;97.10;;;47.63;;
6564;SDS011;3316;44.118;27.258;2023-04-01T17:41:54;36.67;;;22.10;;
6564;SDS011;3316;44.118;27.258;2023-04-01T17:47:21;40.23;;;23.07;;
6564;SDS011;3316;44.118;27.258;2023-04-01T17:52:39;28.13;;;18.40;;
6564;SDS011;3316;44.118;27.258;2023-04-01T18:00:38;31.10;;;20.93;;
6564;SDS011;3316;44.118;27.258;2023-04-01T18:11:14;65.07;;;35.97;;
6564;SDS011;3316;44.118;27.258;2023-04-01T18:14:18;52.73;;;30.63;;
6564;SDS011;3316;44.118;27.258;2023-04-01T18:22:26;36.80;;;24.50;;
6564;SDS011;3316;44.118;27.258;2023-04-01T18:30:36;28.83;;;18.27;;
6564;SDS011;3316;44.118;27.258;2023-04-01T18:33:07;27.60;;;19.33;;
6564;SDS011;3316;44.118;27.258;2023-04-01T18:38:55;32.50;;;21.10;;
6564;SDS011;3316;44.118;27.258;2023-04-01T18:41:38;35.47;;;20.73;;
6564;SDS011;3316;44.118;27.258;2023-04-01T18:44:28;31.03;;;18.47;;
6564;SDS011;3316;44.118;27.258;2023-04-01T18:50:28;31.70;;;19.63;;
6564;SDS011;3316;44.118;27.258;2023-04-01T19:01:15;25.07;;;16.27;;
6564;SDS011;3316;44.118;27.258;2023-04-01T19:04:31;25.63;;;15.77;;
6564;SDS011;3316;44.118;27.258;2023-04-01T19:07:00;26.50;;;15.23;;
6564;SDS011;3316;44.118;27.258;2023-04-01T19:09:48;21.23;;;14.77;;
6564;SDS011;3316;44.118;27.258;2023-04-01T19:15:11;18.03;;;12.87;;
6564;SDS011;3316;44.118;27.258;2023-04-01T19:26:00;22.07;;;14.87;;
6564;SDS011;3316;44.118;27.258;2023-04-01T19:28:52;24.77;;;15.23;;
6564;SDS011;3316;44.118;27.258;2023-04-01T19:37:11;21.77;;;14.37;;
6564;SDS011;3316;44.118;27.258;2023-04-01T19:52:45;20.33;;;11.87;;
6564;SDS011;3316;44.118;27.258;2023-04-01T20:00:34;19.83;;;13.33;;
6564;SDS011;3316;44.118;27.258;2023-04-01T20:08:58;21.27;;;12.53;;
6564;SDS011;3316;44.118;27.258;2023-04-01T20:11:55;14.57;;;10.07;;
6564;SDS011;3316;44.118;27.258;2023-04-01T20:14:43;14.93;;;8.83;;
6564;SDS011;3316;44.118;27.258;2023-04-01T20:17:16;14.77;;;9.17;;
6564;SDS011;3316;44.118;27.258;2023-04-01T20:22:27;19.57;;;10.10;;
6564;SDS011;3316;44.118;27.258;2023-04-01T20:27:57;17.83;;;10.80;;
6564;SDS011;3316;44.118;27.258;2023-04-01T20:41:17;28.77;;;16.43;;
6564;SDS011;3316;44.118;27.258;2023-04-01T20:54:41;18.87;;;12.23;;
6564;SDS011;3316;44.118;27.258;2023-04-01T20:57:21;18.67;;;10.00;;
6564;SDS011;3316;44.118;27.258;2023-04-01T21:02:47;20.67;;;12.37;;
6564;SDS011;3316;44.118;27.258;2023-04-01T21:11:28;17.60;;;11.63;;
6564;SDS011;3316;44.118;27.258;2023-04-01T21:16:15;10.57;;;7.97;;
6564;SDS011;3316;44.118;27.258;2023-04-01T22:08:39;13.87;;;7.10;;
6564;SDS011;3316;44.118;27.258;2023-04-01T22:11:57;10.33;;;6.70;;
6564;SDS011;3316;44.118;27.258;2023-04-01T22:32:44;18.53;;;9.17;;
6564;SDS011;3316;44.118;27.258;2023-04-01T22:38:18;12.07;;;7.73;;
6564;SDS011;3316;44.118;27.258;2023-04-01T22:40:47;8.93;;;5.90;;
6564;SDS011;3316;44.118;27.258;2023-04-01T22:43:39;10.50;;;8.30;;
6564;SDS011;3316;44.118;27.258;2023-04-01T22:46:23;10.17;;;6.73;;
6564;SDS011;3316;44.118;27.258;2023-04-01T22:49:11;6.83;;;5.73;;
6564;SDS011;3316;44.118;27.258;2023-04-01T22:51:47;7.00;;;4.87;;
6564;SDS011;3316;44.118;27.258;2023-04-01T22:54:21;6.23;;;4.80;;
6564;SDS011;3316;44.118;27.258;2023-04-01T22:57:18;7.37;;;5.30;;
6564;SDS011;3316;44.118;27.258;2023-04-01T23:02:43;6.13;;;4.63;;
6564;SDS011;3316;44.118;27.258;2023-04-01T23:05:13;5.30;;;3.07;;
6564;SDS011;3316;44.118;27.258;2023-04-01T23:10:39;4.70;;;3.23;;
6564;SDS011;3316;44.118;27.258;2023-04-01T23:13:13;3.43;;;3.13;;
6564;SDS011;3316;44.118;27.258;2023-04-01T23:15:43;3.20;;;2.90;;
6564;SDS011;3316;44.118;27.258;2023-04-01T23:23:45;2.53;;;2.33;;
6564;SDS011;3316;44.118;27.258;2023-04-01T23:26:21;2.53;;;2.30;;
6564;SDS011;3316;44.118;27.258;2023-04-01T23:29:15;2.07;;;1.93;;
6564;SDS011;3316;44.118;27.258;2023-04-01T23:31:45;2.60;;;2.40;;
6564;SDS011;3316;44.118;27.258;2023-04-01T23:36:47;2.60;;;2.40;;
6564;SDS011;3316;44.118;27.258;2023-04-01T23:42:03;3.23;;;2.93;;
6564;SDS011;3316;44.118;27.258;2023-04-01T23:44:29;3.03;;;2.83;;
6564;SDS011;3316;44.118;27.258;2023-04-01T23:46:57;3.43;;;3.17;;
6564;SDS011;3316;44.118;27.258;2023-04-01T23:49:25;4.10;;;3.80;;
6564;SDS011;3316;44.118;27.258;2023-04-01T23:51:59;4.77;;;4.27;;
6564;SDS011;3316;44.118;27.258;2023-04-01T23:54:30;3.57;;;3.27;;
6564;SDS011;3316;44.118;27.258;2023-04-01T23:58:21;5.43;;;4.60;;
